createdAt,value
2023-05-02T00:02:09.960Z,82.00
2023-05-02T00:04:38.426Z,82.40
2023-05-02T00:07:20.994Z,82.40
2023-05-02T00:09:58.388Z,82.60
2023-05-02T00:12:31.136Z,82.70
2023-05-02T00:14:59.324Z,82.70
2023-05-02T00:17:27.590Z,83.80
2023-05-02T00:19:58.450Z,83.90
2023-05-02T00:22:28.453Z,83.10
2023-05-02T00:24:58.475Z,83.00
2023-05-02T00:27:28.016Z,83.30
2023-05-02T00:29:59.473Z,83.30
2023-05-02T00:32:28.345Z,83.50
2023-05-02T00:34:57.050Z,83.50
2023-05-02T00:37:28.690Z,83.80
2023-05-02T00:40:00.485Z,83.90
2023-05-02T00:42:31.673Z,83.90
2023-05-02T00:45:06.919Z,83.90
2023-05-02T00:47:35.461Z,84.00
2023-05-02T00:50:06.828Z,84.20
2023-05-02T00:52:38.377Z,84.20
2023-05-02T00:55:10.375Z,84.20
2023-05-02T00:57:39.948Z,84.00
2023-05-02T01:00:10.713Z,84.10
2023-05-02T01:02:50.132Z,84.10
2023-05-02T01:05:22.309Z,84.20
2023-05-02T01:08:12.716Z,84.00
2023-05-02T01:10:50.179Z,84.00
2023-05-02T01:13:25.901Z,84.30
2023-05-02T01:15:56.068Z,84.40
2023-05-02T01:18:27.373Z,84.50
2023-05-02T01:21:03.520Z,84.50
2023-05-02T01:23:39.446Z,84.80
2023-05-02T01:26:17.641Z,84.90
2023-05-02T01:28:59.486Z,84.90
2023-05-02T01:31:33.541Z,85.00
2023-05-02T01:34:03.601Z,85.10
2023-05-02T01:36:33.866Z,85.30
2023-05-02T01:39:03.577Z,85.30
2023-05-02T01:41:33.548Z,85.40
2023-05-02T01:44:04.688Z,85.70
2023-05-02T01:46:35.489Z,85.90
2023-05-02T01:49:07.110Z,86.10
2023-05-02T01:51:37.406Z,86.20
2023-05-02T01:54:10.147Z,86.40
2023-05-02T01:56:40.461Z,86.60
2023-05-02T01:59:12.570Z,86.70
2023-05-02T02:01:43.629Z,86.90
2023-05-02T02:04:16.092Z,86.90
2023-05-02T02:06:49.968Z,86.90
2023-05-02T02:09:18.454Z,87.20
2023-05-02T02:12:00.268Z,87.40
2023-05-02T02:14:35.937Z,87.70
2023-05-02T02:17:12.814Z,87.70
2023-05-02T02:19:42.626Z,88.00
2023-05-02T02:22:14.690Z,88.40
2023-05-02T02:24:44.036Z,88.50
2023-05-02T02:27:12.184Z,88.50
2023-05-02T02:29:53.649Z,88.70
2023-05-02T02:32:21.921Z,88.70
2023-05-02T02:34:53.067Z,88.60
2023-05-02T02:37:32.311Z,88.90
2023-05-02T02:40:06.912Z,89.30
2023-05-02T02:42:41.058Z,89.40
2023-05-02T02:45:26.208Z,89.70
2023-05-02T02:48:08.496Z,89.80
2023-05-02T02:50:52.770Z,90.10
2023-05-02T02:53:27.191Z,90.30
2023-05-02T02:56:03.044Z,90.40
2023-05-02T02:58:51.263Z,90.50
2023-05-02T03:01:25.371Z,90.50
2023-05-02T03:03:56.593Z,90.80
2023-05-02T03:06:27.056Z,90.90
2023-05-02T03:08:56.611Z,91.20
2023-05-02T03:11:30.786Z,91.10
2023-05-02T03:14:11.883Z,91.20
2023-05-02T03:16:47.782Z,91.40
2023-05-02T03:19:21.538Z,91.70
2023-05-02T03:21:50.557Z,91.80
2023-05-02T03:24:23.159Z,91.90
2023-05-02T03:26:51.525Z,92.30
2023-05-02T03:29:25.753Z,92.10
2023-05-02T03:31:57.902Z,92.30
2023-05-02T03:34:26.656Z,92.40
2023-05-02T03:36:58.457Z,92.60
2023-05-02T03:39:27.307Z,92.80
2023-05-02T03:41:55.590Z,93.00
2023-05-02T03:44:25.608Z,93.20
2023-05-02T03:46:53.960Z,93.50
2023-05-02T03:49:23.699Z,93.50
2023-05-02T03:51:55.387Z,93.60
2023-05-02T03:54:33.819Z,93.60
2023-05-02T03:57:05.362Z,93.90
2023-05-02T03:59:35.247Z,94.00
2023-05-02T04:02:11.436Z,94.20
2023-05-02T04:04:48.522Z,94.20
2023-05-02T04:07:19.955Z,94.20
2023-05-02T04:09:59.266Z,94.30
2023-05-02T04:12:28.235Z,94.40
2023-05-02T04:15:23.058Z,94.60
2023-05-02T04:17:53.283Z,94.70
2023-05-02T04:20:23.639Z,94.70
2023-05-02T04:22:54.472Z,94.70
2023-05-02T04:25:24.378Z,94.80
2023-05-02T04:27:55.370Z,94.90
2023-05-02T04:30:25.141Z,94.90
2023-05-02T04:33:07.859Z,95.00
2023-05-02T04:35:42.928Z,95.10
2023-05-02T04:38:14.354Z,95.20
2023-05-02T04:40:44.974Z,95.20
2023-05-02T04:43:15.214Z,95.10
2023-05-02T04:45:58.771Z,95.20
2023-05-02T04:48:30.856Z,95.30
2023-05-02T04:51:00.700Z,95.20
2023-05-02T04:53:34.517Z,95.30
2023-05-02T04:56:02.796Z,95.30
2023-05-02T04:58:32.991Z,95.20
2023-05-02T05:01:04.333Z,95.40
2023-05-02T05:03:33.347Z,95.30
2023-05-02T05:06:03.728Z,95.30
2023-05-02T05:08:32.880Z,95.10
2023-05-02T05:11:01.873Z,95.00
2023-05-02T05:13:33.029Z,95.10
2023-05-02T05:16:02.166Z,94.30
2023-05-02T05:18:40.342Z,93.50
2023-05-02T05:21:14.920Z,93.10
2023-05-02T05:23:46.200Z,91.40
2023-05-02T05:26:18.636Z,90.80
2023-05-02T05:28:50.736Z,89.20
2023-05-02T05:31:31.351Z,85.40
2023-05-02T05:34:01.597Z,84.30
2023-05-02T05:36:32.496Z,80.80
2023-05-02T05:39:01.365Z,78.90
2023-05-02T05:41:30.682Z,77.10
2023-05-02T05:44:04.369Z,75.50
2023-05-02T05:46:36.181Z,74.00
2023-05-02T05:49:06.456Z,72.70
2023-05-02T05:51:37.057Z,71.60
2023-05-02T05:54:05.746Z,68.60
2023-05-02T05:56:34.102Z,67.70
2023-05-02T05:59:09.574Z,68.40
2023-05-02T06:01:38.205Z,67.30
2023-05-02T06:04:07.510Z,68.20
2023-05-02T06:06:40.273Z,68.00
2023-05-02T06:09:09.054Z,67.60
2023-05-02T06:11:40.452Z,65.30
2023-05-02T06:14:09.438Z,65.40
2023-05-02T06:16:38.080Z,64.20
2023-05-02T06:19:07.512Z,62.60
2023-05-02T06:21:39.216Z,62.90
2023-05-02T06:24:08.385Z,64.00
2023-05-02T06:26:36.759Z,63.30
2023-05-02T06:29:04.926Z,64.30
2023-05-02T06:31:33.164Z,64.40
2023-05-02T06:34:01.392Z,64.60
2023-05-02T06:36:30.028Z,63.80
2023-05-02T06:38:59.562Z,62.90
2023-05-02T06:41:27.752Z,63.20
2023-05-02T06:43:56.040Z,62.80
2023-05-02T06:46:30.877Z,62.10
2023-05-02T06:48:59.151Z,59.90
2023-05-02T06:51:27.833Z,58.80
2023-05-02T06:53:56.048Z,57.50
2023-05-02T06:56:28.983Z,56.90
2023-05-02T07:01:57.999Z,57.20
2023-05-02T07:04:26.404Z,55.10
2023-05-02T07:06:57.102Z,55.00
2023-05-02T07:09:25.428Z,54.40
2023-05-02T07:11:55.144Z,54.70
2023-05-02T07:14:32.690Z,54.30
2023-05-02T07:17:01.354Z,53.40
2023-05-02T07:19:38.597Z,53.20
2023-05-02T07:22:14.524Z,53.00
2023-05-02T07:24:43.648Z,52.70
2023-05-02T07:27:39.090Z,51.70
2023-05-02T07:30:11.050Z,50.80
2023-05-02T07:32:43.014Z,49.40
2023-05-02T07:35:14.635Z,48.20
2023-05-02T07:40:25.357Z,46.60
2023-05-02T07:42:55.213Z,47.20
2023-05-02T07:45:23.571Z,46.20
2023-05-02T07:47:51.802Z,46.40
2023-05-02T07:50:20.125Z,46.10
2023-05-02T07:52:48.324Z,45.30
2023-05-02T07:55:16.672Z,45.20
2023-05-02T07:57:44.970Z,45.00
2023-05-02T08:00:16.339Z,45.20
2023-05-02T08:02:45.482Z,45.10
2023-05-02T08:05:14.079Z,44.60
2023-05-02T08:07:44.902Z,44.10
2023-05-02T08:10:13.200Z,44.50
2023-05-02T08:12:41.769Z,44.80
2023-05-02T08:15:12.944Z,44.30
2023-05-02T08:17:44.882Z,44.20
2023-05-02T08:20:13.520Z,44.10
2023-05-02T08:22:41.724Z,43.60
2023-05-02T08:25:10.516Z,43.50
2023-05-02T08:27:38.769Z,43.60
2023-05-02T08:30:09.031Z,43.70
2023-05-02T08:32:38.134Z,43.60
2023-05-02T08:35:08.948Z,43.50
2023-05-02T08:37:40.894Z,44.30
2023-05-02T08:40:13.866Z,43.90
2023-05-02T08:42:45.034Z,43.80
2023-05-02T08:45:16.779Z,44.00
2023-05-02T08:47:46.911Z,43.60
2023-05-02T08:50:18.880Z,43.60
2023-05-02T08:52:48.144Z,44.00
2023-05-02T08:55:17.015Z,44.30
2023-05-02T08:57:45.569Z,44.20
2023-05-02T09:00:14.954Z,44.20
2023-05-02T09:02:58.281Z,44.60
2023-05-02T09:05:34.688Z,44.60
2023-05-02T09:08:03.002Z,44.60
2023-05-02T09:10:32.463Z,44.80
2023-05-02T09:13:31.985Z,45.00
2023-05-02T09:16:02.285Z,44.90
2023-05-02T09:18:32.175Z,45.30
2023-05-02T09:21:06.473Z,45.30
2023-05-02T09:23:42.806Z,45.10
2023-05-02T09:26:18.059Z,45.70
2023-05-02T09:28:47.910Z,46.70
2023-05-02T09:31:27.019Z,47.80
2023-05-02T09:34:10.623Z,48.80
2023-05-02T09:36:43.268Z,50.30
2023-05-02T09:39:13.685Z,50.90
2023-05-02T09:41:42.773Z,51.50
2023-05-02T09:44:15.470Z,52.20
2023-05-02T09:46:44.773Z,53.20
2023-05-02T09:49:14.777Z,53.70
2023-05-02T09:51:47.408Z,54.30
2023-05-02T09:54:16.073Z,54.60
2023-05-02T09:56:56.605Z,55.00
2023-05-02T09:59:26.001Z,55.50
2023-05-02T10:01:58.485Z,55.40
2023-05-02T10:04:27.858Z,56.50
2023-05-02T10:06:58.626Z,56.60
2023-05-02T10:09:28.350Z,57.30
2023-05-02T10:11:57.979Z,57.20
2023-05-02T10:14:29.544Z,57.50
2023-05-02T10:17:02.808Z,57.70
2023-05-02T10:19:42.953Z,57.70
2023-05-02T10:22:13.910Z,57.80
2023-05-02T10:24:43.000Z,58.60
2023-05-02T10:27:11.280Z,58.70
2023-05-02T10:29:41.743Z,59.10
2023-05-02T10:32:11.064Z,59.60
2023-05-02T10:34:41.496Z,59.70
2023-05-02T10:37:13.645Z,60.00
2023-05-02T10:39:41.897Z,60.90
2023-05-02T10:42:11.088Z,61.40
2023-05-02T10:44:41.285Z,62.50
2023-05-02T10:47:22.742Z,63.20
2023-05-02T10:49:52.510Z,63.70
2023-05-02T10:52:30.265Z,64.00
2023-05-02T10:55:19.430Z,64.20
2023-05-02T10:58:24.802Z,64.90
2023-05-02T11:00:55.460Z,66.20
2023-05-02T11:04:02.238Z,67.10
2023-05-02T11:06:33.549Z,68.30
2023-05-02T11:09:37.708Z,70.00
2023-05-02T11:12:06.518Z,71.40
2023-05-02T11:14:47.454Z,73.30
2023-05-02T11:17:16.127Z,75.10
2023-05-02T11:20:30.037Z,77.80
2023-05-02T11:23:22.888Z,79.70
2023-05-02T11:26:02.186Z,81.40
2023-05-02T11:28:48.449Z,83.20
2023-05-02T11:32:04.988Z,84.40
2023-05-02T11:34:43.826Z,86.70
2023-05-02T11:37:18.482Z,90.20
2023-05-02T11:39:47.695Z,92.00
2023-05-02T11:42:37.480Z,93.60
2023-05-02T11:45:07.902Z,95.70
2023-05-02T11:47:46.292Z,97.20
2023-05-02T11:50:14.678Z,98.60
2023-05-02T11:52:44.875Z,99.90
2023-05-02T11:55:15.936Z,99.70
2023-05-02T11:57:45.445Z,99.40
2023-05-02T12:00:15.249Z,99.20
2023-05-02T12:02:45.076Z,99.00
2023-05-02T12:05:14.581Z,98.90
2023-05-02T12:07:44.985Z,99.40
2023-05-02T12:10:14.585Z,99.30
2023-05-02T12:12:44.342Z,98.80
2023-05-02T12:15:14.257Z,98.60
2023-05-02T12:17:44.400Z,98.20
2023-05-02T12:20:17.129Z,97.70
2023-05-02T12:22:45.691Z,96.30
2023-05-02T12:25:14.034Z,94.90
2023-05-02T12:27:42.279Z,94.70
2023-05-02T12:30:26.151Z,93.70
2023-05-02T12:32:59.843Z,93.30
2023-05-02T12:35:28.676Z,92.80
2023-05-02T12:38:11.320Z,92.20
2023-05-02T12:40:41.121Z,91.90
2023-05-02T12:43:10.751Z,91.50
2023-05-02T12:45:41.753Z,91.70
2023-05-02T12:48:27.507Z,91.90
2023-05-02T12:50:56.535Z,91.00
2023-05-02T12:53:41.167Z,90.50
2023-05-02T12:56:10.526Z,90.20
2023-05-02T12:58:43.794Z,89.10
2023-05-02T13:01:16.175Z,89.00
2023-05-02T13:03:46.014Z,88.80
2023-05-02T13:06:14.369Z,88.50
2023-05-02T13:08:47.114Z,88.20
2023-05-02T13:11:15.754Z,88.90
2023-05-02T13:13:43.927Z,88.90
2023-05-02T13:16:12.246Z,89.30
2023-05-02T13:18:40.737Z,89.30
2023-05-02T13:21:10.336Z,89.30
2023-05-02T13:23:39.917Z,88.70
2023-05-02T13:26:08.141Z,88.90
2023-05-02T13:28:37.519Z,89.20
2023-05-02T13:31:06.196Z,89.10
2023-05-02T13:33:34.457Z,88.50
2023-05-02T13:36:02.585Z,87.80
2023-05-02T13:38:32.593Z,85.70
2023-05-02T13:41:00.768Z,82.70
2023-05-02T13:43:29.005Z,81.70
2023-05-02T13:45:57.610Z,80.60
2023-05-02T13:48:26.099Z,79.50
2023-05-02T13:50:54.298Z,79.50
2023-05-02T13:53:22.891Z,80.00
2023-05-02T13:55:52.503Z,79.90
2023-05-02T13:58:21.393Z,79.80
2023-05-02T14:00:49.675Z,78.80
2023-05-02T14:03:19.074Z,78.60
2023-05-02T14:05:47.327Z,79.20
2023-05-02T14:08:18.513Z,79.20
2023-05-02T14:10:47.209Z,78.90
2023-05-02T14:13:17.190Z,78.90
2023-05-02T14:15:46.797Z,79.70
2023-05-02T14:18:22.769Z,78.30
2023-05-02T14:20:53.948Z,77.70
2023-05-02T14:23:34.604Z,77.70
2023-05-02T14:26:04.408Z,77.60
2023-05-02T14:28:36.277Z,77.70
2023-05-02T14:31:06.319Z,76.90
2023-05-02T14:33:41.488Z,76.60
2023-05-02T14:36:13.203Z,76.40
2023-05-02T14:38:48.237Z,76.80
2023-05-02T14:41:17.640Z,77.10
2023-05-02T14:43:48.421Z,77.70
2023-05-02T14:46:20.455Z,77.30
2023-05-02T14:48:48.803Z,77.10
2023-05-02T14:51:17.038Z,78.60
2023-05-02T14:53:45.346Z,77.50
2023-05-02T14:56:15.954Z,76.80
2023-05-02T14:58:48.642Z,77.00
2023-05-02T15:01:18.346Z,76.70
2023-05-02T15:04:04.572Z,78.00
2023-05-02T15:06:35.251Z,78.50
2023-05-02T15:09:06.420Z,77.90
2023-05-02T15:11:34.654Z,78.00
2023-05-02T15:14:04.234Z,78.80
2023-05-02T15:16:32.461Z,78.00
2023-05-02T15:19:03.098Z,77.80
2023-05-02T15:21:32.095Z,78.30
2023-05-02T15:24:00.332Z,78.30
2023-05-02T15:26:28.803Z,79.20
2023-05-02T15:29:00.147Z,78.10
2023-05-02T15:31:29.924Z,78.30
2023-05-02T15:33:58.396Z,78.20
2023-05-02T15:36:29.063Z,78.20
2023-05-02T15:38:57.382Z,78.30
2023-05-02T15:41:27.174Z,78.60
2023-05-02T15:43:55.473Z,78.80
2023-05-02T15:46:23.736Z,78.50
2023-05-02T15:48:53.624Z,79.10
2023-05-02T15:51:24.494Z,79.40
2023-05-02T15:53:55.096Z,79.20
2023-05-02T15:56:23.371Z,79.40
2023-05-02T15:58:54.349Z,79.40
2023-05-02T16:01:24.211Z,79.40
2023-05-02T16:03:56.423Z,79.40
2023-05-02T16:06:27.879Z,79.70
2023-05-02T16:08:56.601Z,79.80
2023-05-02T16:11:24.860Z,80.20
2023-05-02T16:13:53.239Z,80.40
2023-05-02T16:16:21.666Z,80.70
2023-05-02T16:18:57.745Z,80.80
2023-05-02T16:21:26.169Z,81.40
2023-05-02T16:24:06.333Z,81.60
2023-05-02T16:26:34.732Z,81.20
2023-05-02T16:29:03.323Z,81.70
2023-05-02T16:31:36.905Z,82.20
2023-05-02T16:34:06.569Z,82.40
2023-05-02T16:36:36.907Z,82.70
2023-05-02T16:39:07.905Z,83.20
2023-05-02T16:41:37.107Z,83.80
2023-05-02T16:44:08.313Z,84.00
2023-05-02T16:46:39.604Z,84.00
2023-05-02T16:49:09.249Z,84.40
2023-05-02T16:51:37.607Z,85.30
2023-05-02T16:54:06.275Z,87.10
2023-05-02T16:56:34.610Z,87.20
2023-05-02T16:59:02.906Z,87.80
2023-05-02T17:01:31.212Z,87.90
2023-05-02T17:03:59.506Z,88.10
2023-05-02T17:06:29.340Z,88.30
2023-05-02T17:08:57.613Z,88.70
2023-05-02T17:11:26.809Z,88.90
2023-05-02T17:13:55.060Z,88.90
2023-05-02T17:16:23.295Z,89.10
2023-05-02T17:18:51.495Z,89.70
2023-05-02T17:21:20.107Z,90.00
2023-05-02T17:23:49.872Z,90.20
2023-05-02T17:26:21.137Z,90.50
2023-05-02T17:28:50.341Z,90.70
2023-05-02T17:31:19.080Z,90.70
2023-05-02T17:33:47.584Z,91.20
2023-05-02T17:36:16.081Z,91.40
2023-05-02T17:38:45.149Z,91.60
2023-05-02T17:41:15.424Z,91.80
2023-05-02T17:43:47.403Z,91.90
2023-05-02T17:46:16.077Z,92.00
2023-05-02T17:48:44.529Z,92.40
2023-05-02T17:51:12.917Z,92.70
2023-05-02T17:53:41.231Z,93.10
2023-05-02T17:56:10.638Z,93.20
2023-05-02T17:58:40.175Z,93.40
2023-05-02T18:01:13.996Z,94.00
2023-05-02T18:03:54.891Z,94.00
2023-05-02T18:06:23.378Z,94.10
2023-05-02T18:08:56.486Z,94.30
2023-05-02T18:11:26.802Z,94.70
2023-05-02T18:13:57.286Z,95.10
2023-05-02T18:16:25.623Z,95.10
2023-05-02T18:18:55.223Z,95.50
2023-05-02T18:21:28.259Z,95.60
2023-05-02T18:23:58.806Z,95.70
2023-05-02T18:26:27.022Z,96.10
2023-05-02T18:28:57.648Z,96.30
2023-05-02T18:31:26.378Z,96.80
2023-05-02T18:33:56.250Z,96.80
2023-05-02T18:36:29.480Z,96.50
2023-05-02T18:38:57.745Z,95.90
2023-05-02T18:41:25.990Z,95.50
2023-05-02T18:43:54.629Z,95.10
2023-05-02T18:46:22.817Z,94.80
2023-05-02T18:48:51.058Z,94.70
2023-05-02T18:51:20.877Z,94.60
2023-05-02T18:53:49.677Z,94.50
2023-05-02T18:56:18.079Z,94.50
2023-05-02T18:58:54.804Z,94.50
2023-05-02T19:01:28.032Z,94.60
2023-05-02T19:03:58.655Z,94.60
2023-05-02T19:06:31.589Z,94.70
2023-05-02T19:09:05.928Z,94.90
2023-05-02T19:11:34.176Z,94.90
2023-05-02T19:14:03.676Z,95.00
2023-05-02T19:16:32.015Z,95.00
2023-05-02T19:19:00.568Z,95.20
2023-05-02T19:21:30.259Z,95.40
2023-05-02T19:23:58.647Z,95.60
2023-05-02T19:26:27.088Z,95.60
2023-05-02T19:28:58.286Z,95.60
2023-05-02T19:31:39.670Z,95.70
2023-05-02T19:34:19.573Z,95.80
2023-05-02T19:36:52.242Z,95.90
2023-05-02T19:39:20.736Z,96.00
2023-05-02T19:41:50.036Z,96.20
2023-05-02T19:44:18.392Z,96.20
2023-05-02T19:46:46.589Z,96.40
2023-05-02T19:49:14.772Z,96.60
2023-05-02T19:51:43.084Z,97.00
2023-05-02T19:54:12.793Z,97.10
2023-05-02T19:56:42.267Z,97.50
2023-05-02T19:59:10.493Z,97.80
2023-05-02T20:01:38.717Z,98.00
2023-05-02T20:04:07.089Z,98.30
2023-05-02T20:06:35.439Z,98.60
2023-05-02T20:09:03.797Z,98.80
2023-05-02T20:11:33.307Z,99.10
2023-05-02T20:14:01.474Z,99.40
2023-05-02T20:16:31.478Z,99.60
2023-05-02T20:18:59.909Z,99.90
2023-05-02T20:21:27.995Z,99.90
2023-05-02T20:23:56.219Z,99.90
2023-05-02T20:26:24.385Z,99.90
2023-05-02T20:28:54.094Z,99.90
2023-05-02T20:31:22.444Z,99.90
2023-05-02T20:33:51.199Z,99.90
2023-05-02T20:36:19.394Z,99.90
2023-05-02T20:38:48.801Z,99.90
2023-05-02T20:41:17.771Z,99.90
2023-05-02T20:43:48.580Z,99.90
2023-05-02T20:46:21.272Z,99.90
2023-05-02T20:48:49.578Z,99.90
2023-05-02T20:51:17.766Z,99.90
2023-05-02T20:53:45.973Z,99.90
2023-05-02T20:56:14.312Z,99.90
2023-05-02T20:58:42.514Z,99.90
2023-05-02T21:01:11.657Z,99.90
2023-05-02T21:03:41.354Z,99.90
2023-05-02T21:06:09.675Z,99.90
2023-05-02T21:08:37.951Z,99.90
2023-05-02T21:11:13.909Z,99.90
2023-05-02T21:13:42.183Z,99.90
2023-05-02T21:16:17.625Z,99.90
2023-05-02T21:18:47.964Z,99.90
2023-05-02T21:21:16.241Z,99.90
2023-05-02T21:23:44.846Z,99.90
2023-05-02T21:26:13.253Z,99.90
2023-05-02T21:28:41.583Z,99.90
2023-05-02T21:31:09.864Z,99.90
2023-05-02T21:33:38.272Z,99.90
2023-05-02T21:36:08.474Z,99.90
2023-05-02T21:38:36.700Z,99.90
2023-05-02T21:41:05.982Z,99.90
2023-05-02T21:43:37.908Z,99.90
2023-05-02T21:46:06.241Z,99.90
2023-05-02T21:48:34.971Z,99.90
2023-05-02T21:51:09.080Z,99.90
2023-05-02T21:53:37.421Z,99.90
2023-05-02T21:56:07.069Z,99.90
2023-05-02T21:58:35.443Z,99.90
2023-05-02T22:01:03.730Z,99.90
2023-05-02T22:03:33.856Z,99.90
2023-05-02T22:06:06.047Z,99.90
2023-05-02T22:08:36.363Z,99.90
2023-05-02T22:11:09.343Z,99.90
2023-05-02T22:13:37.974Z,99.90
2023-05-02T22:16:08.152Z,99.90
2023-05-02T22:18:37.030Z,99.90
2023-05-02T22:21:05.389Z,99.90
2023-05-02T22:23:34.934Z,99.90
2023-05-02T22:26:03.075Z,99.90
2023-05-02T22:28:31.371Z,99.90
2023-05-02T22:30:59.525Z,99.90
2023-05-02T22:33:27.707Z,99.90
2023-05-02T22:35:57.011Z,99.90
2023-05-02T22:38:25.222Z,99.90
2023-05-02T22:40:54.820Z,99.90
2023-05-02T22:43:22.994Z,99.90
2023-05-02T22:45:51.336Z,99.90
2023-05-02T22:48:19.635Z,99.90
2023-05-02T22:50:48.760Z,99.90
2023-05-02T22:53:21.757Z,99.90
2023-05-02T22:55:50.044Z,99.90
2023-05-02T22:58:19.750Z,99.90
2023-05-02T23:00:47.993Z,99.90
2023-05-02T23:03:16.222Z,99.90
2023-05-02T23:05:44.527Z,99.90
2023-05-02T23:08:12.716Z,99.90
2023-05-02T23:10:40.991Z,99.90
2023-05-02T23:13:09.242Z,99.90
2023-05-02T23:15:40.249Z,99.90
2023-05-02T23:18:08.677Z,99.90
2023-05-02T23:20:36.925Z,99.90
2023-05-02T23:23:05.307Z,99.90
2023-05-02T23:25:36.011Z,99.90
2023-05-02T23:28:04.336Z,99.90
2023-05-02T23:30:33.230Z,99.90
2023-05-02T23:33:02.945Z,99.90
2023-05-02T23:35:32.382Z,99.90
2023-05-02T23:38:01.154Z,99.90
2023-05-02T23:40:29.561Z,99.90
2023-05-02T23:42:57.775Z,99.90
2023-05-02T23:45:26.031Z,99.90
2023-05-02T23:47:54.212Z,99.90
2023-05-02T23:50:23.808Z,99.90
2023-05-02T23:52:56.430Z,99.90
2023-05-02T23:55:24.646Z,99.90
2023-05-02T23:57:52.873Z,99.90
